sensor_id;sensor_type;location;lat;lon;timestamp;P1;durP1;ratioP1;P2;durP2;ratioP2
59766;SDS011;46248;58.364;25.582;2023-12-07T00:01:27;14.32;;;6.20;;
59766;SDS011;46248;58.364;25.582;2023-12-07T00:04:50;16.58;;;6.65;;
59766;SDS011;46248;58.364;25.582;2023-12-07T00:08:13;19.10;;;6.72;;
59766;SDS011;46248;58.364;25.582;2023-12-07T00:11:35;15.18;;;6.18;;
59766;SDS011;46248;58.364;25.582;2023-12-07T00:14:59;11.98;;;5.00;;
59766;SDS011;46248;58.364;25.582;2023-12-07T00:18:24;16.85;;;6.57;;
59766;SDS011;46248;58.364;25.582;2023-12-07T00:21:47;16.60;;;6.30;;
59766;SDS011;46248;58.364;25.582;2023-12-07T00:25:10;11.98;;;6.05;;
59766;SDS011;46248;58.364;25.582;2023-12-07T00:28:33;19.02;;;7.28;;
59766;SDS011;46248;58.364;25.582;2023-12-07T00:31:57;15.40;;;6.15;;
59766;SDS011;46248;58.364;25.582;2023-12-07T00:35:20;13.93;;;5.75;;
59766;SDS011;46248;58.364;25.582;2023-12-07T00:38:43;17.42;;;5.97;;
59766;SDS011;46248;58.364;25.582;2023-12-07T00:42:07;12.52;;;6.15;;
59766;SDS011;46248;58.364;25.582;2023-12-07T00:45:29;16.42;;;5.18;;
59766;SDS011;46248;58.364;25.582;2023-12-07T00:48:54;11.98;;;5.30;;
59766;SDS011;46248;58.364;25.582;2023-12-07T00:52:17;14.80;;;5.90;;
59766;SDS011;46248;58.364;25.582;2023-12-07T00:55:40;13.05;;;6.30;;
59766;SDS011;46248;58.364;25.582;2023-12-07T00:59:03;9.57;;;5.65;;
59766;SDS011;46248;58.364;25.582;2023-12-07T01:02:26;15.05;;;7.30;;
59766;SDS011;46248;58.364;25.582;2023-12-07T01:05:50;17.40;;;6.65;;
59766;SDS011;46248;58.364;25.582;2023-12-07T01:09:13;12.32;;;5.53;;
59766;SDS011;46248;58.364;25.582;2023-12-07T01:12:36;11.40;;;6.10;;
59766;SDS011;46248;58.364;25.582;2023-12-07T01:15:59;9.75;;;5.07;;
59766;SDS011;46248;58.364;25.582;2023-12-07T01:19:22;11.23;;;5.47;;
59766;SDS011;46248;58.364;25.582;2023-12-07T01:22:47;13.57;;;7.05;;
59766;SDS011;46248;58.364;25.582;2023-12-07T01:26:10;16.10;;;7.05;;
59766;SDS011;46248;58.364;25.582;2023-12-07T01:29:33;11.85;;;6.10;;
59766;SDS011;46248;58.364;25.582;2023-12-07T01:32:56;13.93;;;6.13;;
59766;SDS011;46248;58.364;25.582;2023-12-07T01:36:19;14.68;;;4.93;;
59766;SDS011;46248;58.364;25.582;2023-12-07T01:39:43;12.07;;;6.32;;
59766;SDS011;46248;58.364;25.582;2023-12-07T01:43:06;10.90;;;5.38;;
59766;SDS011;46248;58.364;25.582;2023-12-07T01:46:29;11.35;;;5.35;;
59766;SDS011;46248;58.364;25.582;2023-12-07T01:49:53;15.80;;;5.38;;
59766;SDS011;46248;58.364;25.582;2023-12-07T01:53:16;11.38;;;4.90;;
59766;SDS011;46248;58.364;25.582;2023-12-07T01:56:41;12.63;;;5.53;;
59766;SDS011;46248;58.364;25.582;2023-12-07T02:00:05;16.40;;;4.80;;
59766;SDS011;46248;58.364;25.582;2023-12-07T02:03:29;14.68;;;5.35;;
59766;SDS011;46248;58.364;25.582;2023-12-07T02:06:53;11.27;;;4.82;;
59766;SDS011;46248;58.364;25.582;2023-12-07T02:10:19;11.13;;;5.47;;
59766;SDS011;46248;58.364;25.582;2023-12-07T02:13:43;17.30;;;5.88;;
59766;SDS011;46248;58.364;25.582;2023-12-07T02:17:08;11.95;;;7.15;;
59766;SDS011;46248;58.364;25.582;2023-12-07T02:20:42;14.43;;;6.53;;
59766;SDS011;46248;58.364;25.582;2023-12-07T02:27:38;12.85;;;6.32;;
59766;SDS011;46248;58.364;25.582;2023-12-07T02:31:02;11.93;;;6.13;;
59766;SDS011;46248;58.364;25.582;2023-12-07T02:34:25;10.30;;;5.13;;
59766;SDS011;46248;58.364;25.582;2023-12-07T02:37:49;15.18;;;5.75;;
59766;SDS011;46248;58.364;25.582;2023-12-07T02:41:12;14.80;;;6.35;;
59766;SDS011;46248;58.364;25.582;2023-12-07T02:44:38;13.20;;;6.55;;
59766;SDS011;46248;58.364;25.582;2023-12-07T02:48:01;14.88;;;6.93;;
59766;SDS011;46248;58.364;25.582;2023-12-07T02:51:25;15.10;;;6.78;;
59766;SDS011;46248;58.364;25.582;2023-12-07T02:54:47;15.95;;;6.32;;
59766;SDS011;46248;58.364;25.582;2023-12-07T02:58:10;18.35;;;7.85;;
59766;SDS011;46248;58.364;25.582;2023-12-07T03:01:35;12.77;;;5.70;;
59766;SDS011;46248;58.364;25.582;2023-12-07T03:04:58;17.70;;;6.32;;
59766;SDS011;46248;58.364;25.582;2023-12-07T03:08:21;10.23;;;5.38;;
59766;SDS011;46248;58.364;25.582;2023-12-07T03:11:44;13.55;;;6.05;;
59766;SDS011;46248;58.364;25.582;2023-12-07T03:15:07;14.55;;;5.88;;
59766;SDS011;46248;58.364;25.582;2023-12-07T03:18:32;16.48;;;5.07;;
59766;SDS011;46248;58.364;25.582;2023-12-07T03:21:55;17.90;;;6.53;;
59766;SDS011;46248;58.364;25.582;2023-12-07T03:25:19;12.10;;;5.18;;
59766;SDS011;46248;58.364;25.582;2023-12-07T03:28:42;12.70;;;5.53;;
59766;SDS011;46248;58.364;25.582;2023-12-07T03:32:05;14.55;;;6.43;;
59766;SDS011;46248;58.364;25.582;2023-12-07T03:35:30;13.55;;;4.47;;
59766;SDS011;46248;58.364;25.582;2023-12-07T03:38:53;10.93;;;4.90;;
59766;SDS011;46248;58.364;25.582;2023-12-07T03:42:16;10.30;;;5.13;;
59766;SDS011;46248;58.364;25.582;2023-12-07T03:45:59;19.05;;;5.57;;
59766;SDS011;46248;58.364;25.582;2023-12-07T03:49:26;10.38;;;4.55;;
59766;SDS011;46248;58.364;25.582;2023-12-07T03:52:51;13.45;;;5.65;;
59766;SDS011;46248;58.364;25.582;2023-12-07T03:56:22;10.13;;;4.70;;
59766;SDS011;46248;58.364;25.582;2023-12-07T03:59:46;14.52;;;6.18;;
59766;SDS011;46248;58.364;25.582;2023-12-07T04:03:09;10.60;;;4.32;;
59766;SDS011;46248;58.364;25.582;2023-12-07T04:06:32;13.45;;;5.60;;
59766;SDS011;46248;58.364;25.582;2023-12-07T04:09:56;11.57;;;4.95;;
59766;SDS011;46248;58.364;25.582;2023-12-07T04:13:19;12.18;;;5.72;;
59766;SDS011;46248;58.364;25.582;2023-12-07T04:16:42;12.48;;;4.85;;
59766;SDS011;46248;58.364;25.582;2023-12-07T04:20:06;12.23;;;5.20;;
59766;SDS011;46248;58.364;25.582;2023-12-07T04:23:30;12.85;;;4.93;;
59766;SDS011;46248;58.364;25.582;2023-12-07T04:26:55;11.82;;;5.10;;
59766;SDS011;46248;58.364;25.582;2023-12-07T04:30:17;10.18;;;4.03;;
59766;SDS011;46248;58.364;25.582;2023-12-07T04:33:40;14.68;;;6.43;;
59766;SDS011;46248;58.364;25.582;2023-12-07T04:37:03;10.80;;;5.55;;
59766;SDS011;46248;58.364;25.582;2023-12-07T04:40:26;13.40;;;5.72;;
59766;SDS011;46248;58.364;25.582;2023-12-07T04:43:51;12.88;;;4.60;;
59766;SDS011;46248;58.364;25.582;2023-12-07T04:47:14;9.05;;;4.43;;
59766;SDS011;46248;58.364;25.582;2023-12-07T04:50:37;11.50;;;5.72;;
59766;SDS011;46248;58.364;25.582;2023-12-07T04:54:00;14.10;;;5.50;;
59766;SDS011;46248;58.364;25.582;2023-12-07T04:57:35;9.75;;;4.85;;
59766;SDS011;46248;58.364;25.582;2023-12-07T05:01:00;13.40;;;5.13;;
59766;SDS011;46248;58.364;25.582;2023-12-07T05:04:23;12.35;;;5.63;;
59766;SDS011;46248;58.364;25.582;2023-12-07T05:07:46;8.55;;;3.88;;
59766;SDS011;46248;58.364;25.582;2023-12-07T05:11:09;12.25;;;4.68;;
59766;SDS011;46248;58.364;25.582;2023-12-07T05:14:31;8.50;;;3.40;;
59766;SDS011;46248;58.364;25.582;2023-12-07T05:17:56;10.48;;;4.85;;
59766;SDS011;46248;58.364;25.582;2023-12-07T05:21:19;10.38;;;3.95;;
59766;SDS011;46248;58.364;25.582;2023-12-07T05:24:43;6.38;;;3.15;;
59766;SDS011;46248;58.364;25.582;2023-12-07T05:28:05;11.27;;;4.32;;
59766;SDS011;46248;58.364;25.582;2023-12-07T05:31:28;14.48;;;5.03;;
59766;SDS011;46248;58.364;25.582;2023-12-07T05:34:53;15.13;;;4.93;;
59766;SDS011;46248;58.364;25.582;2023-12-07T05:38:15;9.07;;;4.55;;
59766;SDS011;46248;58.364;25.582;2023-12-07T05:41:39;11.18;;;4.32;;
59766;SDS011;46248;58.364;25.582;2023-12-07T05:45:01;11.77;;;5.68;;
59766;SDS011;46248;58.364;25.582;2023-12-07T05:48:27;9.38;;;4.82;;
59766;SDS011;46248;58.364;25.582;2023-12-07T05:51:52;12.18;;;5.70;;
59766;SDS011;46248;58.364;25.582;2023-12-07T05:55:14;10.18;;;5.28;;
59766;SDS011;46248;58.364;25.582;2023-12-07T05:58:37;11.40;;;4.85;;
59766;SDS011;46248;58.364;25.582;2023-12-07T06:02:01;12.40;;;6.18;;
59766;SDS011;46248;58.364;25.582;2023-12-07T06:05:26;12.07;;;5.40;;
59766;SDS011;46248;58.364;25.582;2023-12-07T06:08:50;10.38;;;5.18;;
59766;SDS011;46248;58.364;25.582;2023-12-07T06:12:13;12.52;;;5.30;;
59766;SDS011;46248;58.364;25.582;2023-12-07T06:15:37;18.58;;;5.80;;
59766;SDS011;46248;58.364;25.582;2023-12-07T06:18:59;12.70;;;4.65;;
59766;SDS011;46248;58.364;25.582;2023-12-07T06:22:23;13.07;;;6.57;;
59766;SDS011;46248;58.364;25.582;2023-12-07T06:25:47;14.57;;;4.90;;
59766;SDS011;46248;58.364;25.582;2023-12-07T06:29:10;12.60;;;5.85;;
59766;SDS011;46248;58.364;25.582;2023-12-07T06:32:32;9.43;;;4.82;;
59766;SDS011;46248;58.364;25.582;2023-12-07T06:35:55;10.48;;;5.18;;
59766;SDS011;46248;58.364;25.582;2023-12-07T06:39:18;14.85;;;6.45;;
59766;SDS011;46248;58.364;25.582;2023-12-07T06:42:43;14.98;;;7.50;;
59766;SDS011;46248;58.364;25.582;2023-12-07T06:46:05;12.07;;;5.32;;
59766;SDS011;46248;58.364;25.582;2023-12-07T06:49:28;16.27;;;5.88;;
59766;SDS011;46248;58.364;25.582;2023-12-07T06:53:06;18.45;;;6.45;;
59766;SDS011;46248;58.364;25.582;2023-12-07T06:56:29;13.13;;;6.68;;
59766;SDS011;46248;58.364;25.582;2023-12-07T06:59:53;19.15;;;6.50;;
59766;SDS011;46248;58.364;25.582;2023-12-07T07:03:16;17.02;;;6.50;;
59766;SDS011;46248;58.364;25.582;2023-12-07T07:06:39;11.02;;;6.07;;
59766;SDS011;46248;58.364;25.582;2023-12-07T07:10:04;14.38;;;6.88;;
59766;SDS011;46248;58.364;25.582;2023-12-07T07:13:27;16.48;;;5.78;;
59766;SDS011;46248;58.364;25.582;2023-12-07T07:16:52;11.77;;;5.38;;
59766;SDS011;46248;58.364;25.582;2023-12-07T07:20:15;14.63;;;6.75;;
59766;SDS011;46248;58.364;25.582;2023-12-07T07:23:37;17.83;;;6.72;;
59766;SDS011;46248;58.364;25.582;2023-12-07T07:27:00;21.48;;;6.55;;
59766;SDS011;46248;58.364;25.582;2023-12-07T07:30:23;15.77;;;7.18;;
59766;SDS011;46248;58.364;25.582;2023-12-07T07:33:48;19.23;;;7.47;;
59766;SDS011;46248;58.364;25.582;2023-12-07T07:37:20;19.58;;;6.72;;
59766;SDS011;46248;58.364;25.582;2023-12-07T07:40:43;12.35;;;6.20;;
59766;SDS011;46248;58.364;25.582;2023-12-07T07:44:08;19.35;;;8.02;;
59766;SDS011;46248;58.364;25.582;2023-12-07T07:47:31;18.73;;;8.60;;
59766;SDS011;46248;58.364;25.582;2023-12-07T07:50:55;21.80;;;8.77;;
59766;SDS011;46248;58.364;25.582;2023-12-07T07:54:19;23.30;;;8.13;;
59766;SDS011;46248;58.364;25.582;2023-12-07T07:57:42;19.98;;;8.95;;
59766;SDS011;46248;58.364;25.582;2023-12-07T08:01:05;11.23;;;6.47;;
59766;SDS011;46248;58.364;25.582;2023-12-07T08:04:33;11.48;;;6.70;;
59766;SDS011;46248;58.364;25.582;2023-12-07T08:07:57;20.40;;;6.75;;
59766;SDS011;46248;58.364;25.582;2023-12-07T08:11:20;15.48;;;5.78;;
59766;SDS011;46248;58.364;25.582;2023-12-07T08:14:43;14.07;;;6.88;;
59766;SDS011;46248;58.364;25.582;2023-12-07T08:18:06;15.18;;;6.90;;
59766;SDS011;46248;58.364;25.582;2023-12-07T08:21:30;14.02;;;6.82;;
59766;SDS011;46248;58.364;25.582;2023-12-07T08:24:55;15.77;;;8.25;;
59766;SDS011;46248;58.364;25.582;2023-12-07T08:28:29;17.30;;;7.65;;
59766;SDS011;46248;58.364;25.582;2023-12-07T08:31:52;16.27;;;7.22;;
59766;SDS011;46248;58.364;25.582;2023-12-07T08:35:15;17.30;;;7.85;;
59766;SDS011;46248;58.364;25.582;2023-12-07T08:38:38;17.02;;;8.13;;
59766;SDS011;46248;58.364;25.582;2023-12-07T08:42:02;14.98;;;6.90;;
59766;SDS011;46248;58.364;25.582;2023-12-07T08:45:25;17.05;;;7.22;;
59766;SDS011;46248;58.364;25.582;2023-12-07T08:48:48;15.15;;;6.65;;
59766;SDS011;46248;58.364;25.582;2023-12-07T08:52:11;12.25;;;5.70;;
59766;SDS011;46248;58.364;25.582;2023-12-07T08:55:54;12.70;;;6.90;;
59766;SDS011;46248;58.364;25.582;2023-12-07T08:59:20;14.70;;;6.78;;
59766;SDS011;46248;58.364;25.582;2023-12-07T09:02:43;14.10;;;5.60;;
59766;SDS011;46248;58.364;25.582;2023-12-07T09:06:08;12.38;;;5.47;;
59766;SDS011;46248;58.364;25.582;2023-12-07T09:09:31;13.48;;;5.97;;
59766;SDS011;46248;58.364;25.582;2023-12-07T09:12:54;12.60;;;5.18;;
59766;SDS011;46248;58.364;25.582;2023-12-07T09:16:18;16.95;;;6.25;;
59766;SDS011;46248;58.364;25.582;2023-12-07T09:19:42;11.48;;;4.75;;
59766;SDS011;46248;58.364;25.582;2023-12-07T09:23:07;14.77;;;6.85;;
59766;SDS011;46248;58.364;25.582;2023-12-07T09:26:30;12.60;;;5.63;;
59766;SDS011;46248;58.364;25.582;2023-12-07T09:29:53;9.80;;;4.95;;
59766;SDS011;46248;58.364;25.582;2023-12-07T09:33:17;13.23;;;5.28;;
59766;SDS011;46248;58.364;25.582;2023-12-07T09:36:41;10.38;;;4.25;;
59766;SDS011;46248;58.364;25.582;2023-12-07T09:40:04;12.88;;;5.75;;
59766;SDS011;46248;58.364;25.582;2023-12-07T09:43:28;12.20;;;5.10;;
59766;SDS011;46248;58.364;25.582;2023-12-07T09:46:52;24.92;;;6.50;;
59766;SDS011;46248;58.364;25.582;2023-12-07T09:50:17;21.98;;;6.57;;
59766;SDS011;46248;58.364;25.582;2023-12-07T09:53:42;20.05;;;7.50;;
59766;SDS011;46248;58.364;25.582;2023-12-07T09:57:07;16.42;;;6.85;;
59766;SDS011;46248;58.364;25.582;2023-12-07T10:00:31;18.85;;;5.88;;
59766;SDS011;46248;58.364;25.582;2023-12-07T10:07:41;15.98;;;5.97;;
59766;SDS011;46248;58.364;25.582;2023-12-07T10:11:05;14.20;;;6.10;;
59766;SDS011;46248;58.364;25.582;2023-12-07T10:14:29;17.73;;;6.85;;
59766;SDS011;46248;58.364;25.582;2023-12-07T10:17:51;14.18;;;6.30;;
59766;SDS011;46248;58.364;25.582;2023-12-07T10:21:16;19.80;;;7.30;;
59766;SDS011;46248;58.364;25.582;2023-12-07T10:24:47;14.30;;;5.63;;
59766;SDS011;46248;58.364;25.582;2023-12-07T10:28:10;25.95;;;8.70;;
59766;SDS011;46248;58.364;25.582;2023-12-07T10:31:33;20.02;;;7.82;;
59766;SDS011;46248;58.364;25.582;2023-12-07T10:34:56;23.58;;;7.18;;
59766;SDS011;46248;58.364;25.582;2023-12-07T10:38:21;19.17;;;7.00;;
59766;SDS011;46248;58.364;25.582;2023-12-07T10:41:46;21.40;;;6.50;;
59766;SDS011;46248;58.364;25.582;2023-12-07T10:45:12;21.95;;;8.07;;
59766;SDS011;46248;58.364;25.582;2023-12-07T10:48:38;27.65;;;8.50;;
59766;SDS011;46248;58.364;25.582;2023-12-07T10:52:03;24.33;;;8.45;;
59766;SDS011;46248;58.364;25.582;2023-12-07T10:55:29;16.58;;;6.93;;
59766;SDS011;46248;58.364;25.582;2023-12-07T10:59:01;20.77;;;8.05;;
59766;SDS011;46248;58.364;25.582;2023-12-07T11:02:24;19.58;;;8.02;;
59766;SDS011;46248;58.364;25.582;2023-12-07T11:05:48;18.88;;;6.68;;
59766;SDS011;46248;58.364;25.582;2023-12-07T11:09:13;29.02;;;11.52;;
59766;SDS011;46248;58.364;25.582;2023-12-07T11:12:49;17.15;;;7.85;;
59766;SDS011;46248;58.364;25.582;2023-12-07T11:16:19;21.15;;;8.88;;
59766;SDS011;46248;58.364;25.582;2023-12-07T11:19:51;22.65;;;8.68;;
59766;SDS011;46248;58.364;25.582;2023-12-07T11:23:15;19.90;;;7.57;;
59766;SDS011;46248;58.364;25.582;2023-12-07T11:26:39;21.08;;;8.48;;
59766;SDS011;46248;58.364;25.582;2023-12-07T11:30:06;19.98;;;7.40;;
59766;SDS011;46248;58.364;25.582;2023-12-07T11:33:31;26.15;;;8.95;;
59766;SDS011;46248;58.364;25.582;2023-12-07T11:36:54;16.10;;;7.18;;
59766;SDS011;46248;58.364;25.582;2023-12-07T11:40:17;24.20;;;9.15;;
59766;SDS011;46248;58.364;25.582;2023-12-07T11:43:40;21.50;;;7.50;;
59766;SDS011;46248;58.364;25.582;2023-12-07T11:47:07;23.83;;;8.48;;
59766;SDS011;46248;58.364;25.582;2023-12-07T11:50:32;24.33;;;7.60;;
59766;SDS011;46248;58.364;25.582;2023-12-07T11:53:55;19.25;;;8.18;;
59766;SDS011;46248;58.364;25.582;2023-12-07T11:57:18;23.42;;;7.38;;
59766;SDS011;46248;58.364;25.582;2023-12-07T12:00:41;25.52;;;9.70;;
59766;SDS011;46248;58.364;25.582;2023-12-07T12:04:05;25.45;;;9.25;;
59766;SDS011;46248;58.364;25.582;2023-12-07T12:07:31;23.60;;;8.60;;
59766;SDS011;46248;58.364;25.582;2023-12-07T12:10:54;20.63;;;7.82;;
59766;SDS011;46248;58.364;25.582;2023-12-07T12:14:18;21.02;;;7.35;;
59766;SDS011;46248;58.364;25.582;2023-12-07T12:17:43;20.90;;;7.63;;
59766;SDS011;46248;58.364;25.582;2023-12-07T12:21:07;18.40;;;8.10;;
59766;SDS011;46248;58.364;25.582;2023-12-07T12:24:32;15.15;;;7.50;;
59766;SDS011;46248;58.364;25.582;2023-12-07T12:27:57;22.45;;;8.00;;
59766;SDS011;46248;58.364;25.582;2023-12-07T12:31:23;19.00;;;6.72;;
59766;SDS011;46248;58.364;25.582;2023-12-07T12:34:46;24.48;;;9.15;;
59766;SDS011;46248;58.364;25.582;2023-12-07T12:38:13;23.33;;;8.45;;
59766;SDS011;46248;58.364;25.582;2023-12-07T12:41:55;24.73;;;8.27;;
59766;SDS011;46248;58.364;25.582;2023-12-07T12:45:20;24.52;;;8.07;;
59766;SDS011;46248;58.364;25.582;2023-12-07T12:48:53;25.40;;;9.57;;
59766;SDS011;46248;58.364;25.582;2023-12-07T12:52:17;23.70;;;10.50;;
59766;SDS011;46248;58.364;25.582;2023-12-07T12:55:41;26.70;;;11.93;;
59766;SDS011;46248;58.364;25.582;2023-12-07T12:59:05;36.67;;;10.35;;
59766;SDS011;46248;58.364;25.582;2023-12-07T13:02:29;21.35;;;8.63;;
59766;SDS011;46248;58.364;25.582;2023-12-07T13:05:52;21.83;;;9.20;;
59766;SDS011;46248;58.364;25.582;2023-12-07T13:09:14;17.73;;;7.18;;
59766;SDS011;46248;58.364;25.582;2023-12-07T13:12:38;19.08;;;8.85;;
59766;SDS011;46248;58.364;25.582;2023-12-07T13:16:03;25.13;;;9.05;;
59766;SDS011;46248;58.364;25.582;2023-12-07T13:19:27;19.70;;;9.27;;
59766;SDS011;46248;58.364;25.582;2023-12-07T13:22:50;23.25;;;9.07;;
59766;SDS011;46248;58.364;25.582;2023-12-07T13:26:13;20.77;;;8.90;;
59766;SDS011;46248;58.364;25.582;2023-12-07T13:29:36;28.10;;;9.77;;
59766;SDS011;46248;58.364;25.582;2023-12-07T13:33:00;46.15;;;11.70;;
59766;SDS011;46248;58.364;25.582;2023-12-07T13:36:41;24.90;;;8.65;;
59766;SDS011;46248;58.364;25.582;2023-12-07T13:40:04;30.38;;;11.70;;
59766;SDS011;46248;58.364;25.582;2023-12-07T13:43:30;40.17;;;12.50;;
59766;SDS011;46248;58.364;25.582;2023-12-07T13:46:54;38.95;;;10.48;;
59766;SDS011;46248;58.364;25.582;2023-12-07T13:50:19;33.65;;;12.98;;
59766;SDS011;46248;58.364;25.582;2023-12-07T13:53:43;31.02;;;11.43;;
59766;SDS011;46248;58.364;25.582;2023-12-07T13:57:06;34.85;;;11.38;;
59766;SDS011;46248;58.364;25.582;2023-12-07T14:00:31;32.25;;;11.15;;
59766;SDS011;46248;58.364;25.582;2023-12-07T14:03:55;44.83;;;13.55;;
59766;SDS011;46248;58.364;25.582;2023-12-07T14:07:19;32.25;;;13.38;;
59766;SDS011;46248;58.364;25.582;2023-12-07T14:10:45;36.60;;;12.85;;
59766;SDS011;46248;58.364;25.582;2023-12-07T14:14:08;34.17;;;13.60;;
59766;SDS011;46248;58.364;25.582;2023-12-07T14:17:34;31.27;;;13.27;;
59766;SDS011;46248;58.364;25.582;2023-12-07T14:21:12;46.90;;;16.35;;
59766;SDS011;46248;58.364;25.582;2023-12-07T14:24:52;36.03;;;12.10;;
59766;SDS011;46248;58.364;25.582;2023-12-07T14:28:15;43.88;;;14.63;;
59766;SDS011;46248;58.364;25.582;2023-12-07T14:31:38;35.28;;;14.35;;
59766;SDS011;46248;58.364;25.582;2023-12-07T14:35:01;28.60;;;12.27;;
59766;SDS011;46248;58.364;25.582;2023-12-07T14:38:24;26.77;;;11.48;;
59766;SDS011;46248;58.364;25.582;2023-12-07T14:41:49;25.20;;;10.43;;
59766;SDS011;46248;58.364;25.582;2023-12-07T14:45:12;24.05;;;8.82;;
59766;SDS011;46248;58.364;25.582;2023-12-07T14:48:36;25.38;;;9.80;;
59766;SDS011;46248;58.364;25.582;2023-12-07T14:52:00;22.95;;;9.73;;
59766;SDS011;46248;58.364;25.582;2023-12-07T14:55:23;24.48;;;10.27;;
59766;SDS011;46248;58.364;25.582;2023-12-07T14:58:48;24.05;;;10.25;;
59766;SDS011;46248;58.364;25.582;2023-12-07T15:02:13;30.70;;;13.65;;
59766;SDS011;46248;58.364;25.582;2023-12-07T15:05:36;21.25;;;9.45;;
59766;SDS011;46248;58.364;25.582;2023-12-07T15:08:59;21.63;;;8.65;;
59766;SDS011;46248;58.364;25.582;2023-12-07T15:12:23;18.58;;;7.57;;
59766;SDS011;46248;58.364;25.582;2023-12-07T15:15:50;20.40;;;7.07;;
59766;SDS011;46248;58.364;25.582;2023-12-07T15:19:13;21.73;;;9.63;;
59766;SDS011;46248;58.364;25.582;2023-12-07T15:22:36;21.77;;;8.73;;
59766;SDS011;46248;58.364;25.582;2023-12-07T15:26:00;18.42;;;7.55;;
59766;SDS011;46248;58.364;25.582;2023-12-07T15:29:24;18.25;;;7.97;;
59766;SDS011;46248;58.364;25.582;2023-12-07T15:32:48;20.60;;;8.35;;
59766;SDS011;46248;58.364;25.582;2023-12-07T15:36:12;16.77;;;7.15;;
59766;SDS011;46248;58.364;25.582;2023-12-07T15:39:35;23.88;;;9.73;;
59766;SDS011;46248;58.364;25.582;2023-12-07T15:42:58;20.30;;;9.25;;
59766;SDS011;46248;58.364;25.582;2023-12-07T15:46:20;15.02;;;7.28;;
59766;SDS011;46248;58.364;25.582;2023-12-07T15:49:46;15.57;;;8.10;;
59766;SDS011;46248;58.364;25.582;2023-12-07T15:53:09;16.27;;;6.57;;
59766;SDS011;46248;58.364;25.582;2023-12-07T15:56:32;15.00;;;6.95;;
59766;SDS011;46248;58.364;25.582;2023-12-07T16:00:04;21.92;;;8.48;;
59766;SDS011;46248;58.364;25.582;2023-12-07T16:03:29;18.08;;;8.27;;
59766;SDS011;46248;58.364;25.582;2023-12-07T16:06:56;27.95;;;12.02;;
59766;SDS011;46248;58.364;25.582;2023-12-07T16:10:20;25.00;;;10.35;;
59766;SDS011;46248;58.364;25.582;2023-12-07T16:13:42;21.05;;;9.25;;
59766;SDS011;46248;58.364;25.582;2023-12-07T16:17:06;18.55;;;7.95;;
59766;SDS011;46248;58.364;25.582;2023-12-07T16:20:31;22.90;;;9.35;;
59766;SDS011;46248;58.364;25.582;2023-12-07T16:23:56;20.83;;;9.20;;
59766;SDS011;46248;58.364;25.582;2023-12-07T16:27:19;16.98;;;7.18;;
59766;SDS011;46248;58.364;25.582;2023-12-07T16:30:44;19.90;;;6.47;;
59766;SDS011;46248;58.364;25.582;2023-12-07T16:34:07;12.93;;;6.20;;
59766;SDS011;46248;58.364;25.582;2023-12-07T16:37:31;22.13;;;8.73;;
59766;SDS011;46248;58.364;25.582;2023-12-07T16:40:56;20.40;;;6.78;;
59766;SDS011;46248;58.364;25.582;2023-12-07T16:44:19;20.50;;;7.53;;
59766;SDS011;46248;58.364;25.582;2023-12-07T16:47:42;16.67;;;6.55;;
59766;SDS011;46248;58.364;25.582;2023-12-07T16:51:08;16.25;;;7.03;;
59766;SDS011;46248;58.364;25.582;2023-12-07T16:54:31;17.45;;;6.82;;
59766;SDS011;46248;58.364;25.582;2023-12-07T16:57:56;19.17;;;7.70;;
59766;SDS011;46248;58.364;25.582;2023-12-07T17:01:20;22.45;;;8.18;;
59766;SDS011;46248;58.364;25.582;2023-12-07T17:04:43;27.08;;;8.68;;
59766;SDS011;46248;58.364;25.582;2023-12-07T17:08:06;16.38;;;6.80;;
59766;SDS011;46248;58.364;25.582;2023-12-07T17:11:28;18.70;;;7.47;;
59766;SDS011;46248;58.364;25.582;2023-12-07T17:14:53;14.88;;;5.68;;
59766;SDS011;46248;58.364;25.582;2023-12-07T17:18:16;21.20;;;8.07;;
59766;SDS011;46248;58.364;25.582;2023-12-07T17:21:39;19.17;;;8.30;;
59766;SDS011;46248;58.364;25.582;2023-12-07T17:25:03;27.83;;;11.57;;
59766;SDS011;46248;58.364;25.582;2023-12-07T17:28:26;23.60;;;9.73;;
59766;SDS011;46248;58.364;25.582;2023-12-07T17:31:51;29.77;;;12.13;;
59766;SDS011;46248;58.364;25.582;2023-12-07T17:35:14;28.98;;;12.95;;
59766;SDS011;46248;58.364;25.582;2023-12-07T17:38:37;25.40;;;11.25;;
59766;SDS011;46248;58.364;25.582;2023-12-07T17:42:00;24.67;;;10.57;;
59766;SDS011;46248;58.364;25.582;2023-12-07T17:45:23;14.77;;;7.55;;
59766;SDS011;46248;58.364;25.582;2023-12-07T17:48:47;17.45;;;9.57;;
59766;SDS011;46248;58.364;25.582;2023-12-07T17:52:12;14.40;;;8.15;;
59766;SDS011;46248;58.364;25.582;2023-12-07T17:55:34;16.73;;;7.30;;
59766;SDS011;46248;58.364;25.582;2023-12-07T17:58:57;19.08;;;8.38;;
59766;SDS011;46248;58.364;25.582;2023-12-07T18:02:21;19.48;;;8.90;;
59766;SDS011;46248;58.364;25.582;2023-12-07T18:05:46;18.75;;;8.27;;
59766;SDS011;46248;58.364;25.582;2023-12-07T18:09:09;18.30;;;7.55;;
59766;SDS011;46248;58.364;25.582;2023-12-07T18:12:32;25.10;;;9.82;;
59766;SDS011;46248;58.364;25.582;2023-12-07T18:15:55;17.73;;;7.90;;
59766;SDS011;46248;58.364;25.582;2023-12-07T18:19:19;20.10;;;7.25;;
59766;SDS011;46248;58.364;25.582;2023-12-07T18:22:43;14.65;;;6.60;;
59766;SDS011;46248;58.364;25.582;2023-12-07T18:26:07;13.45;;;6.43;;
59766;SDS011;46248;58.364;25.582;2023-12-07T18:29:30;15.70;;;6.40;;
59766;SDS011;46248;58.364;25.582;2023-12-07T18:32:55;14.27;;;6.50;;
59766;SDS011;46248;58.364;25.582;2023-12-07T18:36:19;14.75;;;6.85;;
59766;SDS011;46248;58.364;25.582;2023-12-07T18:39:43;14.63;;;6.13;;
59766;SDS011;46248;58.364;25.582;2023-12-07T18:43:06;12.80;;;5.35;;
59766;SDS011;46248;58.364;25.582;2023-12-07T18:46:29;7.63;;;4.20;;
59766;SDS011;46248;58.364;25.582;2023-12-07T18:49:52;12.65;;;5.25;;
59766;SDS011;46248;58.364;25.582;2023-12-07T18:53:15;16.17;;;6.57;;
59766;SDS011;46248;58.364;25.582;2023-12-07T18:56:41;17.73;;;6.45;;
59766;SDS011;46248;58.364;25.582;2023-12-07T19:00:07;10.98;;;5.88;;
59766;SDS011;46248;58.364;25.582;2023-12-07T19:03:30;14.50;;;6.72;;
59766;SDS011;46248;58.364;25.582;2023-12-07T19:06:55;20.33;;;6.60;;
59766;SDS011;46248;58.364;25.582;2023-12-07T19:10:20;13.70;;;5.47;;
59766;SDS011;46248;58.364;25.582;2023-12-07T19:13:45;17.00;;;7.65;;
59766;SDS011;46248;58.364;25.582;2023-12-07T19:17:08;14.68;;;7.88;;
59766;SDS011;46248;58.364;25.582;2023-12-07T19:20:31;16.25;;;7.60;;
59766;SDS011;46248;58.364;25.582;2023-12-07T19:23:54;16.42;;;8.13;;
59766;SDS011;46248;58.364;25.582;2023-12-07T19:27:17;16.02;;;6.88;;
59766;SDS011;46248;58.364;25.582;2023-12-07T19:30:41;15.43;;;6.60;;
59766;SDS011;46248;58.364;25.582;2023-12-07T19:34:04;14.05;;;7.13;;
59766;SDS011;46248;58.364;25.582;2023-12-07T19:37:27;18.58;;;8.48;;
59766;SDS011;46248;58.364;25.582;2023-12-07T19:40:51;18.33;;;7.75;;
59766;SDS011;46248;58.364;25.582;2023-12-07T19:44:14;19.13;;;8.10;;
59766;SDS011;46248;58.364;25.582;2023-12-07T19:47:39;15.02;;;6.35;;
59766;SDS011;46248;58.364;25.582;2023-12-07T19:51:03;20.75;;;7.93;;
59766;SDS011;46248;58.364;25.582;2023-12-07T19:54:26;19.90;;;6.93;;
59766;SDS011;46248;58.364;25.582;2023-12-07T19:57:49;18.35;;;8.38;;
59766;SDS011;46248;58.364;25.582;2023-12-07T20:01:12;18.88;;;7.70;;